createdAt,value
2018-03-15T00:02:15.589Z,14.90
2018-03-15T00:04:42.289Z,13.87
2018-03-15T00:07:08.980Z,16.03
2018-03-15T00:09:35.865Z,13.90
2018-03-15T00:12:02.548Z,16.00
2018-03-15T00:14:29.226Z,14.40
2018-03-15T00:16:55.933Z,12.77
2018-03-15T00:19:22.601Z,13.40
2018-03-15T00:21:49.305Z,14.00
2018-03-15T00:24:15.995Z,14.27
2018-03-15T00:26:42.796Z,13.30
2018-03-15T00:29:09.482Z,12.60
2018-03-15T00:31:36.229Z,13.30
2018-03-15T00:34:02.901Z,14.77
2018-03-15T00:36:29.601Z,14.60
2018-03-15T00:38:56.285Z,16.53
2018-03-15T00:41:23.027Z,14.10
2018-03-15T00:43:49.720Z,14.07
2018-03-15T00:46:16.417Z,14.27
2018-03-15T00:48:43.114Z,14.90
2018-03-15T00:51:09.891Z,12.90
2018-03-15T00:53:36.644Z,14.03
2018-03-15T00:56:03.326Z,14.10
2018-03-15T00:58:30.031Z,13.60
2018-03-15T01:00:56.710Z,14.93
2018-03-15T01:03:23.425Z,15.67
2018-03-15T01:05:50.096Z,15.27
2018-03-15T01:08:16.777Z,13.70
2018-03-15T01:10:43.476Z,15.50
2018-03-15T01:13:10.180Z,14.40
2018-03-15T01:15:36.853Z,13.50
2018-03-15T01:18:03.561Z,14.70
2018-03-15T01:20:30.255Z,14.40
2018-03-15T01:22:56.954Z,14.07
2018-03-15T01:25:23.642Z,14.53
2018-03-15T01:27:50.517Z,16.37
2018-03-15T01:30:17.193Z,14.60
2018-03-15T01:32:43.954Z,14.80
2018-03-15T01:35:10.712Z,15.50
2018-03-15T01:37:37.389Z,14.80
2018-03-15T01:40:04.084Z,14.67
2018-03-15T01:42:30.782Z,13.67
2018-03-15T01:44:57.478Z,13.40
2018-03-15T01:47:24.278Z,15.10
2018-03-15T01:49:50.965Z,14.13
2018-03-15T01:52:17.660Z,13.30
2018-03-15T01:54:44.373Z,15.00
2018-03-15T01:57:11.075Z,14.40
2018-03-15T01:59:37.756Z,12.40
2018-03-15T02:02:04.620Z,13.47
2018-03-15T02:04:32.850Z,14.43
2018-03-15T02:06:59.541Z,13.30
2018-03-15T02:09:26.229Z,13.27
2018-03-15T02:11:52.945Z,13.97
2018-03-15T02:14:19.629Z,15.30
2018-03-15T02:16:46.367Z,14.60
2018-03-15T02:19:13.178Z,14.00
2018-03-15T02:21:39.866Z,13.60
2018-03-15T02:24:06.550Z,13.30
2018-03-15T02:26:33.262Z,14.20
2018-03-15T02:28:59.981Z,14.00
2018-03-15T02:31:26.700Z,15.17
2018-03-15T02:33:53.393Z,13.63
2018-03-15T02:36:20.110Z,14.60
2018-03-15T02:38:46.822Z,13.53
2018-03-15T02:41:13.637Z,8.80
2018-03-15T02:43:40.320Z,14.10
2018-03-15T02:46:07.009Z,9.77
2018-03-15T02:48:33.702Z,12.17
2018-03-15T02:51:00.378Z,12.87
2018-03-15T02:53:27.092Z,12.23
2018-03-15T02:55:53.791Z,13.97
2018-03-15T02:58:20.524Z,10.77
2018-03-15T03:00:47.202Z,12.03
2018-03-15T03:03:13.923Z,12.87
2018-03-15T03:05:40.697Z,11.90
2018-03-15T03:08:07.385Z,11.53
2018-03-15T03:10:34.089Z,11.20
2018-03-15T03:13:00.770Z,10.87
2018-03-15T03:15:27.465Z,11.90
2018-03-15T03:17:54.138Z,13.00
2018-03-15T03:20:20.840Z,13.10
2018-03-15T03:22:47.568Z,14.30
2018-03-15T03:25:14.269Z,12.83
2018-03-15T03:27:40.978Z,11.50
2018-03-15T03:30:07.674Z,11.73
2018-03-15T03:32:34.386Z,11.47
2018-03-15T03:35:01.061Z,12.77
2018-03-15T03:37:27.761Z,11.00
2018-03-15T03:39:54.457Z,11.70
2018-03-15T03:42:21.142Z,10.80
2018-03-15T03:44:47.900Z,11.37
2018-03-15T03:47:14.587Z,11.40
2018-03-15T03:49:41.280Z,11.17
2018-03-15T03:52:07.969Z,12.00
2018-03-15T03:54:34.652Z,11.47
2018-03-15T03:57:01.367Z,11.13
2018-03-15T03:59:28.081Z,10.60
2018-03-15T04:01:54.770Z,10.90
2018-03-15T04:04:21.498Z,11.40
2018-03-15T04:06:48.250Z,11.27
2018-03-15T04:09:15.064Z,11.00
2018-03-15T04:11:41.836Z,9.90
2018-03-15T04:14:08.549Z,11.10
2018-03-15T04:16:35.357Z,10.27
2018-03-15T04:19:02.043Z,10.00
2018-03-15T04:21:28.730Z,11.17
2018-03-15T04:23:55.841Z,12.17
2018-03-15T04:26:22.515Z,9.30
2018-03-15T04:28:49.230Z,9.97
2018-03-15T04:31:16.015Z,10.50
2018-03-15T04:33:42.714Z,9.67
2018-03-15T04:36:09.413Z,10.33
2018-03-15T04:38:36.113Z,10.13
2018-03-15T04:41:02.801Z,10.27
2018-03-15T04:43:29.533Z,11.77
2018-03-15T04:45:56.208Z,9.53
2018-03-15T04:48:22.949Z,10.80
2018-03-15T04:50:49.653Z,10.33
2018-03-15T04:53:16.401Z,10.90
2018-03-15T04:55:43.114Z,9.97
2018-03-15T04:58:10.677Z,10.03
2018-03-15T05:00:37.349Z,11.17
2018-03-15T05:03:04.085Z,10.57
2018-03-15T05:05:30.769Z,9.90
2018-03-15T05:07:57.517Z,11.30
2018-03-15T05:10:24.259Z,10.40
2018-03-15T05:12:50.977Z,9.00
2018-03-15T05:15:17.645Z,9.00
2018-03-15T05:17:44.349Z,10.50
2018-03-15T05:20:11.146Z,9.37
2018-03-15T05:22:37.904Z,9.77
2018-03-15T05:25:04.642Z,9.30
2018-03-15T05:27:31.328Z,10.80
2018-03-15T05:29:58.201Z,10.93
2018-03-15T05:32:24.897Z,9.53
2018-03-15T05:34:51.643Z,9.70
2018-03-15T05:37:18.369Z,10.93
2018-03-15T05:39:45.040Z,10.40
2018-03-15T05:42:11.813Z,8.80
2018-03-15T05:44:38.508Z,9.63
2018-03-15T05:47:05.204Z,9.53
2018-03-15T05:49:31.911Z,9.80
2018-03-15T05:51:58.585Z,9.93
2018-03-15T05:54:25.275Z,9.97
2018-03-15T05:56:51.963Z,10.03
2018-03-15T05:59:18.644Z,10.33
2018-03-15T06:01:45.346Z,9.70
2018-03-15T06:04:12.034Z,8.77
2018-03-15T06:06:38.748Z,9.80
2018-03-15T06:09:05.610Z,10.20
2018-03-15T06:11:32.281Z,8.53
2018-03-15T06:13:59.152Z,9.20
2018-03-15T06:16:25.777Z,9.50
2018-03-15T06:18:52.486Z,9.37
2018-03-15T06:21:19.156Z,9.47
2018-03-15T06:23:45.830Z,10.57
2018-03-15T06:26:12.501Z,9.23
2018-03-15T06:28:39.310Z,9.33
2018-03-15T06:31:06.013Z,9.30
2018-03-15T06:33:32.694Z,9.27
2018-03-15T06:35:59.439Z,9.20
2018-03-15T06:38:26.134Z,9.03
2018-03-15T06:40:52.829Z,9.43
2018-03-15T06:43:19.598Z,8.67
2018-03-15T06:45:46.285Z,9.00
2018-03-15T06:48:13.003Z,9.87
2018-03-15T06:50:39.872Z,8.60
2018-03-15T06:53:06.556Z,9.53
2018-03-15T06:55:33.300Z,9.40
2018-03-15T06:57:59.993Z,9.33
2018-03-15T07:00:26.692Z,9.70
2018-03-15T07:02:53.408Z,9.67
2018-03-15T07:05:20.113Z,9.53
2018-03-15T07:07:46.786Z,9.60
2018-03-15T07:10:13.682Z,9.70
2018-03-15T07:12:40.394Z,8.37
2018-03-15T07:15:07.090Z,9.90
2018-03-15T07:17:33.876Z,9.67
2018-03-15T07:20:00.707Z,8.97
2018-03-15T07:22:27.425Z,9.17
2018-03-15T07:24:54.150Z,9.60
2018-03-15T07:27:20.834Z,9.60
2018-03-15T07:29:47.540Z,10.03
2018-03-15T07:32:14.237Z,8.37
2018-03-15T07:34:40.950Z,9.03
2018-03-15T07:37:07.717Z,7.90
2018-03-15T07:39:34.445Z,8.40
2018-03-15T07:42:01.148Z,8.60
2018-03-15T07:44:27.843Z,8.77
2018-03-15T07:46:54.517Z,7.80
2018-03-15T07:49:21.234Z,8.53
2018-03-15T07:51:47.913Z,9.00
2018-03-15T07:54:14.653Z,8.33
2018-03-15T07:56:41.386Z,8.70
2018-03-15T07:59:08.074Z,8.63
2018-03-15T08:01:34.769Z,8.80
2018-03-15T08:04:01.512Z,9.30
2018-03-15T08:06:28.159Z,8.53
2018-03-15T08:08:54.869Z,9.20
2018-03-15T08:11:21.645Z,9.50
2018-03-15T08:13:48.313Z,8.87
2018-03-15T08:16:15.020Z,8.77
2018-03-15T08:18:41.696Z,9.80
2018-03-15T08:21:08.413Z,8.67
2018-03-15T08:23:35.110Z,8.07
2018-03-15T08:26:01.806Z,8.37
2018-03-15T08:28:28.683Z,9.70
2018-03-15T08:30:55.590Z,8.90
2018-03-15T08:33:22.268Z,8.53
2018-03-15T08:35:48.958Z,7.53
2018-03-15T08:38:15.654Z,8.40
2018-03-15T08:40:42.392Z,8.90
2018-03-15T08:43:09.137Z,7.93
2018-03-15T08:45:35.809Z,7.83
2018-03-15T08:48:02.501Z,8.50
2018-03-15T08:50:29.177Z,8.57
2018-03-15T08:52:55.870Z,8.23
2018-03-15T08:55:22.585Z,9.07
2018-03-15T08:57:49.277Z,9.37
2018-03-15T09:00:15.998Z,8.57
2018-03-15T09:02:42.674Z,7.70
2018-03-15T09:05:09.388Z,7.90
2018-03-15T09:07:36.068Z,7.70
2018-03-15T09:10:02.857Z,7.60
2018-03-15T09:12:29.560Z,6.90
2018-03-15T09:14:56.329Z,7.13
2018-03-15T09:17:23.130Z,8.20
2018-03-15T09:19:49.821Z,7.73
2018-03-15T09:22:16.505Z,7.10
2018-03-15T09:24:43.205Z,8.03
2018-03-15T09:27:09.881Z,7.37
2018-03-15T09:29:36.661Z,7.57
2018-03-15T09:32:03.378Z,7.37
2018-03-15T09:34:30.111Z,7.40
2018-03-15T09:36:56.946Z,6.90
2018-03-15T09:39:23.640Z,7.10
2018-03-15T09:41:50.329Z,7.30
2018-03-15T09:44:17.013Z,7.10
2018-03-15T09:46:43.694Z,6.50
2018-03-15T09:49:10.398Z,7.27
2018-03-15T09:51:37.077Z,8.00
2018-03-15T09:54:03.821Z,6.67
2018-03-15T09:56:30.492Z,6.90
2018-03-15T09:58:57.281Z,6.23
2018-03-15T10:01:23.965Z,7.47
2018-03-15T10:03:50.674Z,7.07
2018-03-15T10:06:17.353Z,6.30
2018-03-15T10:08:44.045Z,6.23
2018-03-15T10:11:10.732Z,7.13
2018-03-15T10:13:37.415Z,6.77
2018-03-15T10:16:04.177Z,6.30
2018-03-15T10:18:30.857Z,7.13
2018-03-15T10:20:57.636Z,6.17
2018-03-15T10:23:24.325Z,5.80
2018-03-15T10:25:51.025Z,6.03
2018-03-15T10:28:17.734Z,6.70
2018-03-15T10:30:44.414Z,5.30
2018-03-15T10:33:16.721Z,6.10
2018-03-15T10:35:43.399Z,6.90
2018-03-15T10:38:10.097Z,7.33
2018-03-15T10:40:36.773Z,6.63
2018-03-15T10:43:03.477Z,5.87
2018-03-15T10:45:30.156Z,5.90
2018-03-15T10:47:56.862Z,5.93
2018-03-15T10:50:23.548Z,6.60
2018-03-15T10:52:50.249Z,6.10
2018-03-15T10:55:16.953Z,6.33
2018-03-15T10:57:43.641Z,5.67
2018-03-15T11:00:10.373Z,5.87
2018-03-15T11:02:42.774Z,5.50
2018-03-15T11:05:15.347Z,5.90
2018-03-15T11:07:42.012Z,5.30
2018-03-15T11:10:08.737Z,6.03
2018-03-15T11:12:35.447Z,5.17
2018-03-15T11:15:02.145Z,5.57
2018-03-15T11:17:28.831Z,5.67
2018-03-15T11:19:55.514Z,4.80
2018-03-15T11:22:22.213Z,5.57
2018-03-15T11:24:48.937Z,4.70
2018-03-15T11:27:15.627Z,6.40
2018-03-15T11:29:42.330Z,5.27
2018-03-15T11:32:09.038Z,4.50
2018-03-15T11:34:35.750Z,4.90
2018-03-15T11:37:02.458Z,5.40
2018-03-15T11:39:29.133Z,4.40
2018-03-15T11:41:55.838Z,5.47
2018-03-15T11:44:22.572Z,4.63
2018-03-15T11:46:49.251Z,4.63
2018-03-15T11:49:15.945Z,5.50
2018-03-15T11:51:42.713Z,4.13
2018-03-15T11:54:09.429Z,4.97
2018-03-15T11:56:36.165Z,5.30
2018-03-15T11:59:02.858Z,5.00
2018-03-15T12:01:29.532Z,4.60
2018-03-15T12:03:56.325Z,4.20
2018-03-15T12:06:23.043Z,5.47
2018-03-15T12:08:49.737Z,4.90
2018-03-15T12:11:16.605Z,4.70
2018-03-15T12:13:43.284Z,3.80
2018-03-15T12:16:10.006Z,4.23
2018-03-15T12:18:36.645Z,5.07
2018-03-15T12:21:03.330Z,4.03
2018-03-15T12:23:30.045Z,5.40
2018-03-15T12:25:56.797Z,4.93
2018-03-15T12:28:23.498Z,4.97
2018-03-15T12:30:50.191Z,4.20
2018-03-15T12:33:17.030Z,5.37
2018-03-15T12:35:43.730Z,4.70
2018-03-15T12:38:10.422Z,4.50
2018-03-15T12:40:37.109Z,4.03
2018-03-15T12:43:03.811Z,4.50
2018-03-15T12:45:30.518Z,4.93
2018-03-15T12:47:57.194Z,4.50
2018-03-15T12:50:23.971Z,4.20
2018-03-15T12:52:50.890Z,5.00
2018-03-15T12:55:17.563Z,4.20
2018-03-15T12:57:44.312Z,4.47
2018-03-15T13:00:10.999Z,4.53
2018-03-15T13:02:37.736Z,3.90
2018-03-15T13:05:04.437Z,4.77
2018-03-15T13:07:31.129Z,3.80
2018-03-15T13:09:57.913Z,4.60
2018-03-15T13:12:24.606Z,4.20
2018-03-15T13:14:51.309Z,4.90
2018-03-15T13:17:18.093Z,4.30
2018-03-15T13:19:44.764Z,3.93
2018-03-15T13:22:11.482Z,4.20
2018-03-15T13:24:38.166Z,4.90
2018-03-15T13:27:04.858Z,4.70
2018-03-15T13:29:31.610Z,4.73
2018-03-15T13:31:58.304Z,4.20
2018-03-15T13:34:25.036Z,4.43
2018-03-15T13:36:51.750Z,4.70
2018-03-15T13:39:18.515Z,4.23
2018-03-15T13:41:45.176Z,4.27
2018-03-15T13:44:11.881Z,3.67
2018-03-15T13:46:38.557Z,4.20
2018-03-15T13:49:05.262Z,3.80
2018-03-15T13:51:31.937Z,4.73
2018-03-15T13:53:58.666Z,3.90
2018-03-15T13:56:25.379Z,4.77
2018-03-15T13:58:52.069Z,3.20
2018-03-15T14:01:18.754Z,4.27
2018-03-15T14:03:45.537Z,4.40
2018-03-15T14:06:12.200Z,4.73
2018-03-15T14:08:38.898Z,3.80
2018-03-15T14:11:05.678Z,4.13
2018-03-15T14:13:32.352Z,2.97
2018-03-15T14:15:59.136Z,4.57
2018-03-15T14:18:25.802Z,4.10
2018-03-15T14:20:52.513Z,4.83
2018-03-15T14:23:19.344Z,4.20
2018-03-15T14:25:46.001Z,4.70
2018-03-15T14:28:12.717Z,4.10
2018-03-15T14:30:39.386Z,4.00
2018-03-15T14:33:06.097Z,4.23
2018-03-15T14:35:32.954Z,4.20
2018-03-15T14:37:59.658Z,3.80
2018-03-15T14:40:26.346Z,4.47
2018-03-15T14:42:53.074Z,4.37
2018-03-15T14:45:19.769Z,3.97
2018-03-15T14:47:46.455Z,4.43
2018-03-15T14:50:13.204Z,4.27
2018-03-15T14:52:39.848Z,4.57
2018-03-15T14:55:06.546Z,4.10
2018-03-15T14:57:33.215Z,3.97
2018-03-15T14:59:59.909Z,4.43
2018-03-15T15:02:26.718Z,5.53
2018-03-15T15:04:53.586Z,4.27
2018-03-15T15:07:20.293Z,5.53
2018-03-15T15:09:46.975Z,4.90
2018-03-15T15:12:13.682Z,4.40
2018-03-15T15:14:40.382Z,3.87
2018-03-15T15:17:07.093Z,4.77
2018-03-15T15:19:33.774Z,5.07
2018-03-15T15:22:00.525Z,4.50
2018-03-15T15:24:27.371Z,4.50
2018-03-15T15:26:54.065Z,4.00
2018-03-15T15:29:20.785Z,4.10
2018-03-15T15:31:47.471Z,4.97
2018-03-15T15:34:14.186Z,4.10
2018-03-15T15:36:40.924Z,3.60
2018-03-15T15:39:07.615Z,3.97
2018-03-15T15:41:34.302Z,4.20
2018-03-15T15:44:00.981Z,4.20
2018-03-15T15:46:27.873Z,4.60
2018-03-15T15:48:54.562Z,4.43
2018-03-15T15:51:21.289Z,4.60
2018-03-15T15:53:48.007Z,4.60
2018-03-15T15:56:14.727Z,4.87
2018-03-15T15:58:41.538Z,4.17
2018-03-15T16:01:08.447Z,3.40
2018-03-15T16:03:35.170Z,4.00
2018-03-15T16:06:01.922Z,4.00
2018-03-15T16:08:28.584Z,4.10
2018-03-15T16:10:55.336Z,4.33
2018-03-15T16:13:22.033Z,3.77
2018-03-15T16:15:48.754Z,4.47
2018-03-15T16:18:15.420Z,3.53
2018-03-15T16:20:42.138Z,3.70
2018-03-15T16:23:08.828Z,4.20
2018-03-15T16:25:35.645Z,4.00
2018-03-15T16:28:02.314Z,3.57
2018-03-15T16:30:29.013Z,3.60
2018-03-15T16:32:55.701Z,4.43
2018-03-15T16:35:22.404Z,4.20
2018-03-15T16:37:49.097Z,3.87
2018-03-15T16:40:15.901Z,3.87
2018-03-15T16:42:42.603Z,4.50
2018-03-15T16:45:09.358Z,4.33
2018-03-15T16:47:36.062Z,4.63
2018-03-15T16:50:02.802Z,4.80
2018-03-15T16:52:29.538Z,4.53
2018-03-15T16:54:56.212Z,4.40
2018-03-15T16:57:22.908Z,5.13
2018-03-15T16:59:49.609Z,4.53
2018-03-15T17:02:17.385Z,5.15
2018-03-15T17:04:44.094Z,4.27
2018-03-15T17:07:10.774Z,4.30
2018-03-15T17:09:37.502Z,4.40
2018-03-15T17:12:04.193Z,4.47
2018-03-15T17:14:30.897Z,4.57
2018-03-15T17:16:57.589Z,4.27
2018-03-15T17:19:24.316Z,4.37
2018-03-15T17:21:51.022Z,4.10
2018-03-15T17:24:17.770Z,5.20
2018-03-15T17:26:44.498Z,4.27
2018-03-15T17:29:11.311Z,3.30
2018-03-15T17:31:38.010Z,4.10
2018-03-15T17:34:04.710Z,4.70
2018-03-15T17:36:31.416Z,4.50
2018-03-15T17:38:58.059Z,4.10
2018-03-15T17:41:24.770Z,4.40
2018-03-15T17:43:51.471Z,4.57
2018-03-15T17:46:18.180Z,5.43
2018-03-15T17:48:44.888Z,4.00
2018-03-15T17:51:11.605Z,4.23
2018-03-15T17:53:38.338Z,4.30
2018-03-15T17:56:05.046Z,4.40
2018-03-15T17:58:32.021Z,4.57
2018-03-15T18:00:58.778Z,4.40
2018-03-15T18:03:25.518Z,3.90
2018-03-15T18:05:52.258Z,4.70
2018-03-15T18:08:18.987Z,3.97
2018-03-15T18:10:45.673Z,4.13
2018-03-15T18:13:12.406Z,4.00
2018-03-15T18:15:39.102Z,4.33
2018-03-15T18:18:05.792Z,4.40
2018-03-15T18:20:32.475Z,4.40
2018-03-15T18:22:59.164Z,5.43
2018-03-15T18:25:25.867Z,4.00
2018-03-15T18:27:52.567Z,4.30
2018-03-15T18:30:19.265Z,6.00
2018-03-15T18:32:45.954Z,4.07
2018-03-15T18:35:12.714Z,4.13
2018-03-15T18:37:39.394Z,4.13
2018-03-15T18:40:06.099Z,4.83
2018-03-15T18:42:32.894Z,4.60
2018-03-15T18:44:59.593Z,4.20
2018-03-15T18:47:26.325Z,4.67
2018-03-15T18:49:52.993Z,4.20
2018-03-15T18:52:19.695Z,5.40
2018-03-15T18:54:46.386Z,5.10
2018-03-15T18:57:13.101Z,5.60
2018-03-15T18:59:39.814Z,5.07
2018-03-15T19:02:06.543Z,6.17
2018-03-15T19:04:33.241Z,5.30
2018-03-15T19:06:59.933Z,5.07
2018-03-15T19:09:26.808Z,5.47
2018-03-15T19:11:53.494Z,5.80
2018-03-15T19:14:20.220Z,7.33
2018-03-15T19:16:46.920Z,5.70
2018-03-15T19:19:13.638Z,5.97
2018-03-15T19:21:40.318Z,6.53
2018-03-15T19:24:07.019Z,7.00
2018-03-15T19:26:33.727Z,7.37
2018-03-15T19:29:00.421Z,7.03
2018-03-15T19:31:27.146Z,7.80
2018-03-15T19:33:53.864Z,7.47
2018-03-15T19:36:20.579Z,7.57
2018-03-15T19:38:47.266Z,7.80
2018-03-15T19:41:14.005Z,8.10
2018-03-15T19:43:40.706Z,9.53
2018-03-15T19:46:07.400Z,8.50
2018-03-15T19:48:34.124Z,8.37
2018-03-15T19:51:00.841Z,8.83
2018-03-15T19:53:27.599Z,9.30
2018-03-15T19:55:54.291Z,10.50
2018-03-15T19:58:20.994Z,9.67
2018-03-15T20:00:47.701Z,10.10
2018-03-15T20:03:14.410Z,10.97
2018-03-15T20:05:41.167Z,9.33
2018-03-15T20:08:07.918Z,9.03
2018-03-15T20:10:34.750Z,10.23
2018-03-15T20:13:01.447Z,8.60
2018-03-15T20:15:43.812Z,8.70
2018-03-15T20:18:10.543Z,9.10
2018-03-15T20:20:37.245Z,10.50
2018-03-15T20:23:09.654Z,8.70
2018-03-15T20:25:36.360Z,8.73
2018-03-15T20:28:08.794Z,10.43
2018-03-15T20:30:35.651Z,8.37
2018-03-15T20:33:08.047Z,9.17
2018-03-15T20:35:34.764Z,8.80
2018-03-15T20:38:01.471Z,9.57
2018-03-15T20:40:33.980Z,8.57
2018-03-15T20:43:00.818Z,10.23
2018-03-15T20:45:33.118Z,10.60
2018-03-15T20:48:05.561Z,8.57
2018-03-15T20:50:32.277Z,9.90
2018-03-15T20:52:58.998Z,10.53
2018-03-15T20:55:25.689Z,8.63
2018-03-15T20:57:52.796Z,9.97
2018-03-15T21:00:19.552Z,10.23
2018-03-15T21:02:46.290Z,11.03
2018-03-15T21:05:13.014Z,9.67
2018-03-15T21:07:39.735Z,10.00
2018-03-15T21:10:06.504Z,11.33
2018-03-15T21:12:33.223Z,10.20
2018-03-15T21:15:00.057Z,11.67
2018-03-15T21:17:26.898Z,10.60
2018-03-15T21:19:53.586Z,11.67
2018-03-15T21:22:20.308Z,12.60
2018-03-15T21:24:47.031Z,10.70
2018-03-15T21:27:13.787Z,11.43
2018-03-15T21:29:41.458Z,13.33
2018-03-15T21:32:10.047Z,9.97
2018-03-15T21:34:36.730Z,12.47
2018-03-15T21:37:03.448Z,11.47
2018-03-15T21:39:30.152Z,11.10
2018-03-15T21:41:56.891Z,12.50
2018-03-15T21:44:23.607Z,12.00
2018-03-15T21:46:50.364Z,12.37
2018-03-15T21:49:17.065Z,10.70
2018-03-15T21:51:43.824Z,11.63
2018-03-15T21:54:10.490Z,12.40
2018-03-15T21:56:37.331Z,11.10
2018-03-15T21:59:03.978Z,11.17
2018-03-15T22:01:30.670Z,12.40
2018-03-15T22:03:57.410Z,11.90
2018-03-15T22:06:24.171Z,11.60
2018-03-15T22:08:50.862Z,13.17
2018-03-15T22:11:17.589Z,13.50
2018-03-15T22:13:44.295Z,13.63
2018-03-15T22:16:11.006Z,12.00
2018-03-15T22:18:37.742Z,13.20
2018-03-15T22:21:04.467Z,12.40
2018-03-15T22:23:31.154Z,14.17
2018-03-15T22:25:57.871Z,14.50
2018-03-15T22:28:24.553Z,12.13
2018-03-15T22:30:51.274Z,13.83
2018-03-15T22:33:17.998Z,14.30
2018-03-15T22:35:44.703Z,13.53
2018-03-15T22:38:11.413Z,14.43
2018-03-15T22:40:38.177Z,14.07
2018-03-15T22:43:04.892Z,12.73
2018-03-15T22:45:31.589Z,14.00
2018-03-15T22:47:58.298Z,13.20
2018-03-15T22:50:24.985Z,14.30
2018-03-15T22:52:51.666Z,14.53
2018-03-15T22:55:18.440Z,15.20
2018-03-15T22:57:45.124Z,16.40
2018-03-15T23:00:11.873Z,15.30
2018-03-15T23:02:38.522Z,17.13
2018-03-15T23:05:05.239Z,14.80
2018-03-15T23:07:31.932Z,14.23
2018-03-15T23:09:58.645Z,14.40
2018-03-15T23:12:25.334Z,14.80
2018-03-15T23:14:52.056Z,16.00
2018-03-15T23:17:18.809Z,13.83
2018-03-15T23:19:45.600Z,15.50
2018-03-15T23:22:12.307Z,16.80
2018-03-15T23:24:38.993Z,16.80
2018-03-15T23:27:05.702Z,14.53
2018-03-15T23:29:32.405Z,17.57
2018-03-15T23:31:59.109Z,15.83
2018-03-15T23:34:25.796Z,16.40
2018-03-15T23:36:52.478Z,17.13
2018-03-15T23:39:19.193Z,15.63
2018-03-15T23:41:45.894Z,16.30
2018-03-15T23:44:12.645Z,16.30
2018-03-15T23:46:39.425Z,16.37
2018-03-15T23:49:06.101Z,15.07
2018-03-15T23:51:32.876Z,16.70
2018-03-15T23:53:59.568Z,15.70
2018-03-15T23:56:26.253Z,16.57
2018-03-15T23:58:52.960Z,16.90
